createdAt,value
2023-05-25T00:00:49.790Z,12.66
2023-05-25T00:01:40.141Z,12.66
2023-05-25T00:02:39.390Z,12.63
2023-05-25T00:03:39.170Z,12.63
2023-05-25T00:04:39.212Z,12.57
2023-05-25T00:05:39.647Z,12.57
2023-05-25T00:06:39.049Z,12.53
2023-05-25T00:07:39.009Z,12.53
2023-05-25T00:08:39.020Z,12.50
2023-05-25T00:09:38.985Z,12.47
2023-05-25T00:10:38.998Z,12.45
2023-05-25T00:11:39.008Z,12.44
2023-05-25T00:12:39.077Z,12.43
2023-05-25T00:13:38.955Z,12.40
2023-05-25T00:14:38.950Z,12.37
2023-05-25T00:15:38.939Z,12.35
2023-05-25T00:16:38.904Z,12.33
2023-05-25T00:17:38.889Z,12.33
2023-05-25T00:18:38.885Z,12.30
2023-05-25T00:19:38.888Z,12.29
2023-05-25T00:20:39.026Z,12.26
2023-05-25T00:21:38.884Z,12.25
2023-05-25T00:22:38.924Z,12.23
2023-05-25T00:23:38.877Z,12.21
2023-05-25T00:24:38.871Z,12.17
2023-05-25T00:25:38.852Z,12.18
2023-05-25T00:26:38.836Z,12.14
2023-05-25T00:27:38.808Z,12.12
2023-05-25T00:28:38.845Z,12.12
2023-05-25T00:29:38.809Z,12.10
2023-05-25T00:30:38.963Z,12.10
2023-05-25T00:31:38.845Z,12.07
2023-05-25T00:32:38.844Z,12.03
2023-05-25T00:33:38.761Z,12.03
2023-05-25T00:34:38.829Z,12.02
2023-05-25T00:35:38.711Z,12.00
2023-05-25T00:36:38.694Z,11.99
2023-05-25T00:37:38.708Z,11.99
2023-05-25T00:38:38.689Z,11.96
2023-05-25T00:39:38.719Z,11.95
2023-05-25T00:40:38.694Z,11.93
2023-05-25T00:41:38.662Z,11.89
2023-05-25T00:42:38.659Z,11.89
2023-05-25T00:43:38.701Z,11.88
2023-05-25T00:44:38.637Z,11.85
2023-05-25T00:45:38.625Z,11.83
2023-05-25T00:46:38.691Z,11.81
2023-05-25T00:47:38.635Z,11.81
2023-05-25T00:48:38.593Z,11.77
2023-05-25T00:49:38.590Z,11.77
2023-05-25T00:50:38.613Z,11.74
2023-05-25T00:51:38.543Z,11.74
2023-05-25T00:52:38.596Z,11.74
2023-05-25T00:53:38.555Z,11.73
2023-05-25T00:54:38.521Z,11.71
2023-05-25T00:55:38.521Z,11.73
2023-05-25T00:56:38.535Z,11.71
2023-05-25T00:57:38.558Z,11.70
2023-05-25T00:58:38.492Z,11.67
2023-05-25T00:59:38.477Z,11.67
2023-05-25T01:00:38.491Z,11.65
2023-05-25T01:01:38.516Z,11.62
2023-05-25T01:02:38.502Z,11.59
2023-05-25T01:03:38.659Z,11.59
2023-05-25T01:04:38.439Z,11.58
2023-05-25T01:05:38.421Z,11.56
2023-05-25T01:06:38.480Z,11.58
2023-05-25T01:07:38.464Z,11.56
2023-05-25T01:08:38.383Z,11.53
2023-05-25T01:09:38.447Z,11.53
2023-05-25T01:10:38.366Z,11.51
2023-05-25T01:11:38.428Z,11.51
2023-05-25T01:12:38.388Z,11.49
2023-05-25T01:13:38.346Z,11.51
2023-05-25T01:14:38.324Z,11.49
2023-05-25T01:15:38.311Z,11.51
2023-05-25T01:16:38.352Z,11.48
2023-05-25T01:17:38.594Z,11.48
2023-05-25T01:18:38.318Z,11.49
2023-05-25T01:19:38.282Z,11.48
2023-05-25T01:20:38.322Z,11.43
2023-05-25T01:21:38.238Z,11.45
2023-05-25T01:22:38.232Z,11.44
2023-05-25T01:23:38.240Z,11.44
2023-05-25T01:24:38.462Z,11.41
2023-05-25T01:25:38.244Z,11.44
2023-05-25T01:26:38.193Z,11.44
2023-05-25T01:27:38.192Z,11.44
2023-05-25T01:28:38.169Z,11.41
2023-05-25T01:29:38.173Z,11.43
2023-05-25T01:30:38.402Z,11.41
2023-05-25T01:31:38.183Z,11.41
2023-05-25T01:32:38.157Z,11.41
2023-05-25T01:33:38.147Z,11.38
2023-05-25T01:34:38.127Z,11.38
2023-05-25T01:35:38.125Z,11.37
2023-05-25T01:36:38.103Z,11.37
2023-05-25T01:37:38.068Z,11.35
2023-05-25T01:38:38.074Z,11.35
2023-05-25T01:39:38.086Z,11.37
2023-05-25T01:40:38.074Z,11.33
2023-05-25T01:41:38.049Z,11.33
2023-05-25T01:42:38.068Z,11.33
2023-05-25T01:43:38.294Z,11.31
2023-05-25T01:44:38.058Z,11.30
2023-05-25T01:45:38.084Z,11.27
2023-05-25T01:46:38.124Z,11.26
2023-05-25T01:47:38.001Z,11.26
2023-05-25T01:48:37.987Z,11.23
2023-05-25T01:49:37.955Z,11.23
2023-05-25T01:50:37.961Z,11.22
2023-05-25T01:51:37.936Z,11.20
2023-05-25T01:52:37.980Z,11.19
2023-05-25T01:53:37.956Z,11.19
2023-05-25T01:54:37.979Z,11.16
2023-05-25T01:55:37.910Z,11.16
2023-05-25T01:56:37.910Z,11.15
2023-05-25T01:57:37.913Z,11.12
2023-05-25T01:58:37.905Z,11.07
2023-05-25T01:59:37.846Z,11.07
2023-05-25T02:00:37.857Z,11.07
2023-05-25T02:01:37.854Z,11.07
2023-05-25T02:02:37.860Z,11.04
2023-05-25T02:03:37.816Z,11.02
2023-05-25T02:04:37.786Z,11.02
2023-05-25T02:05:37.826Z,11.04
2023-05-25T02:06:37.772Z,11.00
2023-05-25T02:07:37.781Z,11.00
2023-05-25T02:08:37.743Z,10.97
2023-05-25T02:09:37.727Z,10.98
2023-05-25T02:10:37.721Z,10.95
2023-05-25T02:11:37.757Z,10.95
2023-05-25T02:12:37.728Z,10.92
2023-05-25T02:13:37.717Z,10.94
2023-05-25T02:14:37.700Z,10.90
2023-05-25T02:15:37.762Z,10.90
2023-05-25T02:16:37.755Z,10.90
2023-05-25T02:17:37.775Z,10.87
2023-05-25T02:18:37.652Z,10.86
2023-05-25T02:19:37.662Z,10.84
2023-05-25T02:20:37.722Z,10.83
2023-05-25T02:21:37.624Z,10.83
2023-05-25T02:22:37.615Z,10.79
2023-05-25T02:23:37.623Z,10.76
2023-05-25T02:24:37.639Z,10.76
2023-05-25T02:25:37.581Z,10.76
2023-05-25T02:26:37.591Z,10.72
2023-05-25T02:27:37.565Z,10.72
2023-05-25T02:28:37.558Z,10.69
2023-05-25T02:29:37.508Z,10.71
2023-05-25T02:30:37.568Z,10.71
2023-05-25T02:31:37.566Z,10.68
2023-05-25T02:32:37.498Z,10.67
2023-05-25T02:33:37.489Z,10.68
2023-05-25T02:34:37.504Z,10.62
2023-05-25T02:35:37.484Z,10.64
2023-05-25T02:36:37.478Z,10.61
2023-05-25T02:37:37.444Z,10.61
2023-05-25T02:38:37.432Z,10.59
2023-05-25T02:39:37.459Z,10.58
2023-05-25T02:40:37.427Z,10.57
2023-05-25T02:41:37.403Z,10.57
2023-05-25T02:42:37.489Z,10.57
2023-05-25T02:43:37.377Z,10.57
2023-05-25T02:44:37.426Z,10.55
2023-05-25T02:45:37.386Z,10.55
2023-05-25T02:46:37.430Z,10.53
2023-05-25T02:47:37.355Z,10.51
2023-05-25T02:48:37.299Z,10.49
2023-05-25T02:49:37.341Z,10.48
2023-05-25T02:50:37.312Z,10.45
2023-05-25T02:51:37.296Z,10.46
2023-05-25T02:52:37.304Z,10.45
2023-05-25T02:53:37.273Z,10.45
2023-05-25T02:54:37.240Z,10.45
2023-05-25T02:55:37.229Z,10.43
2023-05-25T02:56:37.375Z,10.41
2023-05-25T02:57:37.230Z,10.39
2023-05-25T02:58:37.222Z,10.41
2023-05-25T02:59:37.223Z,10.38
2023-05-25T03:00:37.239Z,10.38
2023-05-25T03:01:37.234Z,10.34
2023-05-25T03:02:37.232Z,10.34
2023-05-25T03:03:37.257Z,10.33
2023-05-25T03:04:37.148Z,10.31
2023-05-25T03:05:37.151Z,10.28
2023-05-25T03:06:37.175Z,10.25
2023-05-25T03:07:37.172Z,10.24
2023-05-25T03:08:37.142Z,10.21
2023-05-25T03:09:37.117Z,10.21
2023-05-25T03:10:37.096Z,10.21
2023-05-25T03:11:37.089Z,10.20
2023-05-25T03:12:37.105Z,10.18
2023-05-25T03:13:37.071Z,10.17
2023-05-25T03:14:37.078Z,10.18
2023-05-25T03:15:37.088Z,10.15
2023-05-25T03:16:37.079Z,10.15
2023-05-25T03:17:37.126Z,10.12
2023-05-25T03:18:37.025Z,10.13
2023-05-25T03:19:37.028Z,10.13
2023-05-25T03:20:37.013Z,10.13
2023-05-25T03:21:36.992Z,10.12
2023-05-25T03:22:37.002Z,10.12
2023-05-25T03:23:36.977Z,10.12
2023-05-25T03:24:36.957Z,10.12
2023-05-25T03:25:36.960Z,10.09
2023-05-25T03:26:36.952Z,10.09
2023-05-25T03:27:36.900Z,10.12
2023-05-25T03:28:36.889Z,10.12
2023-05-25T03:29:36.902Z,10.12
2023-05-25T03:30:36.886Z,10.15
2023-05-25T03:31:36.924Z,10.10
2023-05-25T03:32:36.916Z,10.12
2023-05-25T03:33:36.855Z,10.10
2023-05-25T03:34:36.840Z,10.09
2023-05-25T03:35:36.917Z,10.10
2023-05-25T03:36:37.067Z,10.10
2023-05-25T03:37:36.858Z,10.10
2023-05-25T03:38:36.759Z,10.12
2023-05-25T03:39:36.776Z,10.12
2023-05-25T03:40:37.169Z,10.13
2023-05-25T03:41:36.791Z,10.15
2023-05-25T03:42:36.761Z,10.15
2023-05-25T03:43:36.824Z,10.21
2023-05-25T03:44:37.541Z,10.20
2023-05-25T03:45:36.764Z,10.23
2023-05-25T03:46:36.807Z,10.23
2023-05-25T03:47:36.773Z,10.27
2023-05-25T03:48:36.697Z,10.24
2023-05-25T03:49:36.700Z,10.25
2023-05-25T03:50:36.695Z,10.24
2023-05-25T03:51:36.671Z,10.27
2023-05-25T03:52:36.684Z,10.25
2023-05-25T03:53:36.677Z,10.28
2023-05-25T03:54:36.638Z,10.28
2023-05-25T03:55:36.631Z,10.31
2023-05-25T03:56:36.584Z,10.30
2023-05-25T03:57:36.618Z,10.31
2023-05-25T03:58:36.604Z,10.33
2023-05-25T03:59:36.558Z,10.38
2023-05-25T04:00:36.540Z,10.34
2023-05-25T04:01:36.550Z,10.38
2023-05-25T04:02:37.506Z,10.39
2023-05-25T04:03:36.818Z,10.39
2023-05-25T04:04:36.578Z,10.39
2023-05-25T04:05:36.511Z,10.42
2023-05-25T04:06:36.513Z,10.41
2023-05-25T04:07:36.474Z,10.45
2023-05-25T04:08:36.516Z,10.43
2023-05-25T04:09:36.495Z,10.46
2023-05-25T04:10:36.481Z,10.48
2023-05-25T04:11:36.427Z,10.49
2023-05-25T04:12:36.432Z,10.48
2023-05-25T04:13:36.442Z,10.51
2023-05-25T04:14:36.420Z,10.49
2023-05-25T04:15:36.391Z,10.53
2023-05-25T04:16:36.436Z,10.51
2023-05-25T04:17:39.141Z,10.55
2023-05-25T04:18:36.355Z,10.58
2023-05-25T04:19:36.362Z,10.59
2023-05-25T04:20:36.445Z,10.59
2023-05-25T04:21:36.380Z,10.62
2023-05-25T04:22:36.313Z,10.62
2023-05-25T04:23:36.329Z,10.67
2023-05-25T04:24:36.392Z,10.65
2023-05-25T04:25:36.323Z,10.67
2023-05-25T04:26:36.441Z,10.69
2023-05-25T04:27:36.270Z,10.71
2023-05-25T04:28:36.311Z,10.69
2023-05-25T04:29:36.256Z,10.72
2023-05-25T04:30:36.280Z,10.76
2023-05-25T04:31:36.250Z,10.79
2023-05-25T04:32:36.324Z,10.82
2023-05-25T04:33:36.655Z,10.83
2023-05-25T04:34:36.202Z,10.86
2023-05-25T04:35:36.214Z,10.87
2023-05-25T04:36:36.176Z,10.89
2023-05-25T04:37:36.219Z,10.94
2023-05-25T04:38:36.205Z,10.97
2023-05-25T04:39:36.196Z,11.01
2023-05-25T04:40:36.171Z,11.07
2023-05-25T04:41:36.190Z,11.15
2023-05-25T04:42:36.125Z,11.20
2023-05-25T04:43:36.120Z,11.30
2023-05-25T04:44:36.092Z,11.40
2023-05-25T04:45:36.165Z,11.51
2023-05-25T04:46:36.100Z,11.56
2023-05-25T04:47:36.143Z,11.55
2023-05-25T04:48:36.038Z,11.52
2023-05-25T04:49:36.056Z,11.53
2023-05-25T04:50:36.083Z,11.52
2023-05-25T04:51:36.150Z,11.55
2023-05-25T04:52:36.009Z,11.53
2023-05-25T04:53:36.043Z,11.53
2023-05-25T04:54:35.995Z,11.56
2023-05-25T04:55:36.006Z,11.59
2023-05-25T04:56:35.985Z,11.58
2023-05-25T04:57:35.976Z,11.60
2023-05-25T04:58:35.997Z,11.62
2023-05-25T04:59:35.996Z,11.65
2023-05-25T05:00:35.964Z,11.67
2023-05-25T05:01:35.978Z,11.73
2023-05-25T05:02:35.954Z,11.77
2023-05-25T05:03:35.925Z,11.78
2023-05-25T05:04:35.876Z,11.81
2023-05-25T05:05:35.921Z,11.78
2023-05-25T05:06:35.859Z,11.77
2023-05-25T05:07:35.845Z,11.76
2023-05-25T05:08:35.842Z,11.74
2023-05-25T05:09:35.845Z,11.76
2023-05-25T05:10:35.867Z,11.74
2023-05-25T05:11:35.837Z,11.76
2023-05-25T05:12:35.792Z,11.70
2023-05-25T05:13:35.791Z,11.71
2023-05-25T05:14:35.781Z,11.71
2023-05-25T05:15:35.800Z,11.76
2023-05-25T05:16:36.071Z,11.77
2023-05-25T05:17:35.785Z,11.83
2023-05-25T05:18:35.760Z,11.83
2023-05-25T05:19:35.749Z,11.89
2023-05-25T05:20:35.769Z,11.91
2023-05-25T05:21:35.719Z,11.97
2023-05-25T05:22:35.710Z,12.00
2023-05-25T05:23:35.738Z,12.08
2023-05-25T05:24:36.583Z,12.12
2023-05-25T05:25:35.649Z,12.15
2023-05-25T05:26:48.147Z,12.20
2023-05-25T05:27:36.679Z,12.30
2023-05-25T05:28:35.613Z,12.37
2023-05-25T05:29:35.764Z,12.48
2023-05-25T05:30:35.604Z,12.63
2023-05-25T05:31:35.647Z,12.76
2023-05-25T05:32:35.616Z,12.91
2023-05-25T05:33:35.641Z,13.12
2023-05-25T05:34:35.602Z,13.39
2023-05-25T05:35:35.579Z,13.70
2023-05-25T05:36:48.798Z,13.98
2023-05-25T05:37:36.547Z,14.30
2023-05-25T05:38:35.764Z,14.51
2023-05-25T05:39:35.563Z,14.61
2023-05-25T05:40:35.524Z,14.68
2023-05-25T05:41:35.575Z,14.92
2023-05-25T05:42:35.450Z,15.04
2023-05-25T05:43:35.487Z,15.15
2023-05-25T05:44:35.465Z,15.23
2023-05-25T05:45:35.517Z,15.29
2023-05-25T05:46:35.453Z,15.29
2023-05-25T05:47:35.488Z,15.41
2023-05-25T05:48:35.488Z,15.62
2023-05-25T05:49:35.458Z,15.85
2023-05-25T05:50:35.398Z,16.06
2023-05-25T05:51:35.393Z,16.29
2023-05-25T05:52:35.406Z,16.51
2023-05-25T05:53:35.459Z,16.74
2023-05-25T05:54:35.371Z,16.92
2023-05-25T05:55:35.326Z,17.12
2023-05-25T05:56:35.344Z,17.22
2023-05-25T05:57:35.337Z,17.38
2023-05-25T05:58:35.317Z,17.49
2023-05-25T05:59:35.310Z,17.60
2023-05-25T06:00:35.650Z,17.72
2023-05-25T06:01:35.445Z,17.69
2023-05-25T06:02:35.528Z,17.34
2023-05-25T06:03:35.334Z,17.32
2023-05-25T06:04:35.282Z,17.28
2023-05-25T06:05:35.336Z,17.44
2023-05-25T06:06:35.269Z,17.27
2023-05-25T06:07:35.253Z,17.01
2023-05-25T06:08:35.186Z,16.86
2023-05-25T06:09:35.225Z,16.76
2023-05-25T06:10:35.171Z,16.65
2023-05-25T06:11:35.164Z,16.58
2023-05-25T06:12:35.127Z,16.55
2023-05-25T06:13:35.129Z,16.55
2023-05-25T06:14:35.147Z,16.57
2023-05-25T06:15:35.158Z,16.46
2023-05-25T06:16:35.190Z,16.37
2023-05-25T06:17:35.189Z,16.31
2023-05-25T06:18:35.118Z,16.25
2023-05-25T06:19:35.084Z,16.22
2023-05-25T06:20:35.134Z,16.16
2023-05-25T06:21:35.079Z,16.41
2023-05-25T06:22:35.047Z,16.62
2023-05-25T06:23:35.031Z,16.64
2023-05-25T06:24:35.026Z,16.61
2023-05-25T06:25:35.202Z,16.55
2023-05-25T06:26:35.000Z,16.76
2023-05-25T06:27:35.018Z,16.99
2023-05-25T06:28:34.975Z,17.09
2023-05-25T06:29:34.989Z,17.41
2023-05-25T06:30:34.980Z,17.52
2023-05-25T06:31:35.005Z,17.59
2023-05-25T06:32:35.014Z,17.88
2023-05-25T06:33:34.930Z,17.94
2023-05-25T06:34:36.666Z,17.91
2023-05-25T06:35:34.945Z,17.88
2023-05-25T06:36:34.881Z,17.94
2023-05-25T06:37:34.876Z,17.91
2023-05-25T06:38:34.830Z,17.93
2023-05-25T06:39:34.883Z,17.91
2023-05-25T06:40:34.848Z,17.97
2023-05-25T06:41:34.810Z,18.08
2023-05-25T06:42:34.806Z,18.12
2023-05-25T06:43:34.927Z,18.15
2023-05-25T06:44:34.905Z,18.15
2023-05-25T06:45:34.795Z,18.13
2023-05-25T06:46:34.774Z,18.08
2023-05-25T06:47:34.756Z,18.05
2023-05-25T06:48:34.749Z,18.06
2023-05-25T06:49:34.757Z,18.06
2023-05-25T06:50:34.715Z,18.00
2023-05-25T06:51:34.694Z,18.02
2023-05-25T06:52:34.714Z,17.98
2023-05-25T06:53:34.699Z,17.95
2023-05-25T06:54:34.672Z,17.91
2023-05-25T06:55:34.669Z,17.87
2023-05-25T06:56:34.651Z,17.82
2023-05-25T06:57:34.664Z,17.73
2023-05-25T06:58:34.626Z,17.68
2023-05-25T06:59:34.628Z,17.68
2023-05-25T07:00:34.602Z,17.66
2023-05-25T07:01:34.664Z,17.71
2023-05-25T07:02:34.604Z,17.69
2023-05-25T07:03:34.666Z,17.71
2023-05-25T07:04:34.612Z,17.68
2023-05-25T07:05:34.580Z,17.71
2023-05-25T07:06:34.608Z,17.72
2023-05-25T07:07:34.545Z,17.71
2023-05-25T07:08:34.588Z,17.71
2023-05-25T07:09:34.554Z,17.79
2023-05-25T07:10:34.552Z,17.86
2023-05-25T07:11:34.527Z,17.87
2023-05-25T07:12:34.546Z,17.91
2023-05-25T07:13:34.527Z,17.95
2023-05-25T07:14:34.580Z,18.00
2023-05-25T07:15:34.486Z,18.02
2023-05-25T07:16:34.523Z,18.02
2023-05-25T07:17:34.506Z,18.00
2023-05-25T07:18:34.506Z,17.97
2023-05-25T07:19:34.437Z,17.97
2023-05-25T07:20:34.568Z,17.97
2023-05-25T07:21:34.402Z,17.95
2023-05-25T07:22:34.418Z,17.98
2023-05-25T07:23:34.429Z,18.00
2023-05-25T07:24:34.450Z,18.00
2023-05-25T07:25:34.377Z,17.95
2023-05-25T07:26:34.377Z,17.95
2023-05-25T07:27:34.363Z,17.91
2023-05-25T07:28:34.362Z,17.82
2023-05-25T07:29:34.361Z,17.73
2023-05-25T07:30:34.312Z,17.71
2023-05-25T07:31:34.346Z,17.71
2023-05-25T07:32:34.319Z,17.66
2023-05-25T07:33:34.277Z,17.63
2023-05-25T07:34:34.321Z,17.63
2023-05-25T07:35:34.245Z,17.63
2023-05-25T07:36:34.255Z,17.56
2023-05-25T07:37:34.236Z,17.56
2023-05-25T07:38:34.252Z,17.46
2023-05-25T07:39:34.218Z,17.42
2023-05-25T07:40:34.204Z,17.39
2023-05-25T07:41:34.226Z,17.31
2023-05-25T07:42:34.210Z,17.28
2023-05-25T07:43:34.166Z,17.24
2023-05-25T07:44:34.152Z,17.22
2023-05-25T07:45:34.320Z,17.23
2023-05-25T07:46:34.190Z,17.19
2023-05-25T07:47:34.199Z,17.19
2023-05-25T07:48:34.215Z,17.17
2023-05-25T07:49:34.103Z,17.17
2023-05-25T07:50:34.089Z,17.16
2023-05-25T07:51:34.095Z,17.14
2023-05-25T07:52:34.089Z,17.13
2023-05-25T07:53:34.072Z,17.14
2023-05-25T07:54:34.426Z,17.14
2023-05-25T07:55:34.081Z,17.22
2023-05-25T07:56:34.037Z,17.31
2023-05-25T07:57:34.030Z,17.31
2023-05-25T07:58:34.011Z,17.34
2023-05-25T07:59:33.983Z,17.42
2023-05-25T08:00:33.998Z,17.50
2023-05-25T08:01:34.007Z,17.65
2023-05-25T08:02:34.733Z,17.71
2023-05-25T08:03:48.324Z,17.79
2023-05-25T08:04:35.069Z,17.88
2023-05-25T08:05:33.954Z,17.94
2023-05-25T08:06:33.914Z,17.95
2023-05-25T08:07:33.879Z,17.97
2023-05-25T08:08:33.920Z,17.95
2023-05-25T08:09:33.927Z,17.95
2023-05-25T08:10:33.937Z,17.91
2023-05-25T08:11:33.906Z,17.88
2023-05-25T08:12:42.967Z,17.84
2023-05-25T08:13:34.868Z,17.82
2023-05-25T08:14:33.833Z,17.73
2023-05-25T08:15:33.805Z,17.69
2023-05-25T08:16:33.893Z,17.69
2023-05-25T08:17:33.813Z,17.76
2023-05-25T08:18:33.815Z,17.75
2023-05-25T08:19:33.765Z,17.82
2023-05-25T08:20:33.825Z,17.90
2023-05-25T08:21:34.771Z,17.91
2023-05-25T08:22:33.734Z,17.90
2023-05-25T08:23:33.723Z,17.87
2023-05-25T08:24:33.722Z,17.86
2023-05-25T08:25:33.709Z,17.87
2023-05-25T08:26:52.410Z,17.88
2023-05-25T08:27:36.089Z,17.97
2023-05-25T08:28:33.663Z,18.02
2023-05-25T08:29:33.660Z,18.11
2023-05-25T08:30:33.725Z,18.13
2023-05-25T08:31:33.722Z,18.19
2023-05-25T08:32:33.703Z,18.24
2023-05-25T08:33:33.684Z,18.26
2023-05-25T08:34:33.604Z,18.28
2023-05-25T08:35:33.628Z,18.33
2023-05-25T08:36:33.869Z,18.39
2023-05-25T08:37:33.615Z,18.43
2023-05-25T08:38:33.586Z,18.48
2023-05-25T08:39:34.917Z,18.48
2023-05-25T08:40:33.537Z,18.39
2023-05-25T08:41:33.528Z,18.36
2023-05-25T08:42:33.713Z,18.34
2023-05-25T08:43:33.511Z,18.39
2023-05-25T08:44:33.505Z,18.39
2023-05-25T08:45:36.726Z,18.36
2023-05-25T08:46:34.481Z,18.34
2023-05-25T08:47:33.580Z,18.33
2023-05-25T08:48:40.987Z,18.18
2023-05-25T08:49:34.508Z,18.06
2023-05-25T08:50:33.501Z,17.98
2023-05-25T08:51:33.538Z,17.95
2023-05-25T08:52:33.466Z,17.91
2023-05-25T08:53:33.419Z,17.91
2023-05-25T08:54:33.387Z,17.86
2023-05-25T08:55:33.378Z,17.87
2023-05-25T08:56:34.647Z,17.86
2023-05-25T08:57:33.382Z,17.91
2023-05-25T08:58:33.406Z,17.91
2023-05-25T08:59:33.419Z,17.98
2023-05-25T09:00:33.321Z,18.05
2023-05-25T09:01:33.394Z,18.16
2023-05-25T09:02:33.375Z,18.24
2023-05-25T09:03:33.375Z,18.30
2023-05-25T09:04:33.300Z,18.41
2023-05-25T09:06:33.316Z,18.51
2023-05-25T09:07:33.261Z,18.61
2023-05-25T09:08:33.450Z,18.70
2023-05-25T09:09:33.250Z,18.83
2023-05-25T09:10:33.259Z,18.98
2023-05-25T09:11:39.664Z,19.16
2023-05-25T09:12:34.318Z,19.26
2023-05-25T09:13:33.179Z,19.41
2023-05-25T09:14:33.174Z,19.49
2023-05-25T09:15:33.213Z,19.55
2023-05-25T09:16:33.170Z,19.55
2023-05-25T09:17:34.199Z,19.47
2023-05-25T09:18:34.533Z,19.42
2023-05-25T09:19:33.074Z,19.38
2023-05-25T09:20:33.140Z,19.27
2023-05-25T09:21:33.353Z,19.20
2023-05-25T09:22:33.062Z,19.12
2023-05-25T09:23:33.091Z,19.08
2023-05-25T09:24:33.088Z,18.97
2023-05-25T09:25:33.097Z,18.86
2023-05-25T09:26:33.100Z,18.76
2023-05-25T09:27:33.039Z,18.70
2023-05-25T09:28:33.157Z,18.68
2023-05-25T09:29:33.050Z,18.70
2023-05-25T09:30:33.054Z,18.64
2023-05-25T09:31:33.076Z,18.63
2023-05-25T09:32:33.163Z,18.60
2023-05-25T09:33:34.931Z,18.58
2023-05-25T09:34:33.006Z,18.57
2023-05-25T09:35:32.974Z,18.53
2023-05-25T09:36:33.047Z,18.49
2023-05-25T09:37:33.048Z,18.45
2023-05-25T09:38:33.183Z,18.36
2023-05-25T09:39:32.998Z,18.31
2023-05-25T09:40:32.880Z,18.27
2023-05-25T09:41:32.866Z,18.24
2023-05-25T09:42:32.918Z,18.21
2023-05-25T09:44:33.896Z,18.13
2023-05-25T09:45:32.867Z,18.06
2023-05-25T09:46:32.986Z,18.02
2023-05-25T09:47:32.916Z,18.02
2023-05-25T09:48:32.860Z,18.02
2023-05-25T09:49:32.863Z,18.05
2023-05-25T09:50:32.844Z,18.08
2023-05-25T09:51:32.802Z,18.11
2023-05-25T09:52:32.783Z,18.13
2023-05-25T09:53:32.766Z,18.15
2023-05-25T09:54:32.765Z,18.19
2023-05-25T09:55:44.326Z,18.24
2023-05-25T09:56:33.753Z,18.31
2023-05-25T09:57:32.751Z,18.37
2023-05-25T09:58:32.883Z,18.41
2023-05-25T09:59:32.703Z,18.42
2023-05-25T10:00:32.700Z,18.48
2023-05-25T10:01:32.708Z,18.60
2023-05-25T10:02:32.708Z,18.70
2023-05-25T10:03:32.670Z,18.82
2023-05-25T10:04:32.696Z,18.97
2023-05-25T10:05:32.626Z,19.11
2023-05-25T10:06:32.623Z,19.16
2023-05-25T10:07:32.651Z,19.19
2023-05-25T10:08:32.598Z,19.24
2023-05-25T10:09:32.592Z,19.23
2023-05-25T10:10:32.595Z,19.20
2023-05-25T10:11:32.896Z,19.16
2023-05-25T10:12:32.584Z,19.12
2023-05-25T10:13:32.548Z,19.08
2023-05-25T10:14:32.564Z,19.04
2023-05-25T10:15:32.531Z,18.98
2023-05-25T10:16:32.583Z,18.86
2023-05-25T10:17:32.587Z,18.82
2023-05-25T10:18:32.485Z,18.78
2023-05-25T10:19:32.460Z,18.70
2023-05-25T10:20:34.219Z,18.67
2023-05-25T10:21:32.453Z,18.70
2023-05-25T10:22:32.448Z,18.74
2023-05-25T10:23:32.469Z,18.76
2023-05-25T10:24:32.443Z,18.81
2023-05-25T10:25:32.421Z,18.83
2023-05-25T10:26:32.472Z,18.88
2023-05-25T10:27:32.380Z,18.97
2023-05-25T10:28:32.422Z,19.07
2023-05-25T10:29:32.382Z,19.20
2023-05-25T10:30:32.402Z,19.34
2023-05-25T10:31:32.734Z,19.48
2023-05-25T10:32:32.362Z,19.62
2023-05-25T10:33:32.396Z,19.75
2023-05-25T10:34:32.309Z,19.89
2023-05-25T10:35:32.873Z,20.00
2023-05-25T10:36:33.297Z,20.08
2023-05-25T10:37:32.285Z,20.24
2023-05-25T10:38:32.311Z,20.37
2023-05-25T10:39:32.221Z,20.58
2023-05-25T10:40:32.228Z,20.64
2023-05-25T10:41:32.198Z,20.60
2023-05-25T10:42:32.256Z,20.63
2023-05-25T10:43:32.218Z,20.63
2023-05-25T10:44:32.214Z,20.59
2023-05-25T10:45:32.197Z,20.66
2023-05-25T10:46:32.264Z,20.59
2023-05-25T10:47:32.191Z,20.56
2023-05-25T10:48:32.160Z,20.49
2023-05-25T10:49:32.150Z,20.60
2023-05-25T10:50:32.171Z,20.66
2023-05-25T10:51:32.112Z,20.66
2023-05-25T10:52:32.375Z,20.73
2023-05-25T10:53:32.085Z,20.88
2023-05-25T10:54:32.123Z,21.10
2023-05-25T10:55:32.085Z,21.33
2023-05-25T10:56:32.084Z,21.63
2023-05-25T10:57:32.027Z,21.78
2023-05-25T10:58:32.029Z,22.00
2023-05-25T10:59:32.011Z,22.22
2023-05-25T11:00:32.304Z,22.37
2023-05-25T11:01:32.073Z,22.62
2023-05-25T11:02:32.029Z,22.96
2023-05-25T11:03:31.998Z,23.47
2023-05-25T11:04:32.003Z,24.19
2023-05-25T11:05:31.953Z,24.50
2023-05-25T11:06:31.933Z,24.61
2023-05-25T11:07:31.962Z,24.92
2023-05-25T11:08:31.987Z,24.46
2023-05-25T11:09:31.926Z,23.92
2023-05-25T11:10:31.922Z,23.44
2023-05-25T11:11:31.945Z,23.16
2023-05-25T11:12:31.914Z,22.88
2023-05-25T11:13:31.920Z,22.63
2023-05-25T11:14:31.878Z,22.49
2023-05-25T11:15:31.863Z,22.40
2023-05-25T11:16:31.909Z,22.33
2023-05-25T11:17:31.865Z,22.26
2023-05-25T11:18:31.828Z,22.26
2023-05-25T11:19:31.826Z,22.44
2023-05-25T11:20:31.896Z,22.51
2023-05-25T11:21:31.872Z,22.68
2023-05-25T11:22:31.839Z,22.84
2023-05-25T11:23:31.821Z,23.02
2023-05-25T11:24:31.794Z,23.17
2023-05-25T11:25:31.830Z,23.28
2023-05-25T11:26:31.812Z,23.44
2023-05-25T11:27:31.758Z,23.69
2023-05-25T11:28:31.763Z,24.01
2023-05-25T11:29:31.725Z,24.92
2023-05-25T11:30:31.747Z,26.46
2023-05-25T11:31:33.424Z,27.15
2023-05-25T11:32:31.773Z,26.78
2023-05-25T11:33:31.652Z,26.37
2023-05-25T11:34:31.644Z,26.10
2023-05-25T11:35:31.733Z,25.89
2023-05-25T11:36:31.653Z,25.56
2023-05-25T11:37:32.099Z,25.14
2023-05-25T11:38:31.605Z,24.78
2023-05-25T11:39:31.637Z,25.39
2023-05-25T11:40:31.620Z,25.59
2023-05-25T11:41:31.616Z,25.18
2023-05-25T11:42:31.615Z,26.04
2023-05-25T11:43:31.620Z,26.66
2023-05-25T11:44:31.577Z,25.93
2023-05-25T11:45:31.567Z,25.46
2023-05-25T11:46:31.579Z,26.42
2023-05-25T11:47:33.109Z,26.67
2023-05-25T11:48:31.588Z,27.04
2023-05-25T11:49:31.513Z,28.08
2023-05-25T11:50:31.506Z,28.93
2023-05-25T11:51:31.516Z,29.61
2023-05-25T11:52:31.478Z,29.44
2023-05-25T11:53:32.493Z,30.16
2023-05-25T11:54:31.452Z,30.13
2023-05-25T11:55:31.465Z,29.00
2023-05-25T11:56:35.544Z,28.96
2023-05-25T11:57:31.406Z,27.97
2023-05-25T11:58:31.376Z,27.81
2023-05-25T11:59:32.396Z,27.95
2023-05-25T12:00:31.398Z,30.08
2023-05-25T12:01:31.403Z,28.60
2023-05-25T12:02:31.425Z,27.78
2023-05-25T12:03:31.459Z,28.84
2023-05-25T12:04:31.457Z,28.10
2023-05-25T12:05:31.463Z,31.55
2023-05-25T12:06:31.320Z,33.85
2023-05-25T12:07:31.331Z,35.30
2023-05-25T12:08:31.308Z,36.22
2023-05-25T12:09:31.331Z,37.07
2023-05-25T12:10:31.341Z,33.77
2023-05-25T12:11:31.290Z,31.57
2023-05-25T12:12:31.335Z,29.90
2023-05-25T12:13:31.284Z,28.87
2023-05-25T12:14:31.275Z,28.18
2023-05-25T12:15:31.348Z,27.50
2023-05-25T12:16:31.283Z,26.92
2023-05-25T12:17:31.323Z,26.48
2023-05-25T12:18:31.264Z,26.07
2023-05-25T12:19:31.211Z,25.81
2023-05-25T12:20:31.340Z,25.68
2023-05-25T12:21:31.213Z,27.66
2023-05-25T12:22:31.386Z,31.90
2023-05-25T12:23:31.174Z,34.35
2023-05-25T12:24:31.127Z,35.41
2023-05-25T12:25:38.770Z,36.22
2023-05-25T12:26:32.118Z,37.14
2023-05-25T12:27:31.101Z,37.56
2023-05-25T12:28:31.155Z,37.79
2023-05-25T12:29:31.151Z,38.19
2023-05-25T12:30:31.232Z,38.62
2023-05-25T12:31:31.257Z,38.77
2023-05-25T12:32:31.072Z,38.82
2023-05-25T12:33:31.031Z,38.98
2023-05-25T12:34:31.012Z,39.11
2023-05-25T12:35:31.047Z,39.49
2023-05-25T12:36:31.069Z,39.93
2023-05-25T12:37:31.018Z,39.98
2023-05-25T12:38:30.978Z,39.80
2023-05-25T12:39:31.121Z,39.64
2023-05-25T12:40:30.972Z,39.83
2023-05-25T12:41:31.481Z,39.83
2023-05-25T12:42:31.089Z,39.46
2023-05-25T12:43:30.919Z,39.32
2023-05-25T12:44:30.964Z,39.23
2023-05-25T12:45:30.994Z,39.03
2023-05-25T12:46:30.939Z,37.56
2023-05-25T12:47:30.943Z,35.37
2023-05-25T12:48:30.934Z,33.15
2023-05-25T12:49:30.867Z,31.55
2023-05-25T12:50:31.325Z,30.51
2023-05-25T12:51:30.858Z,29.80
2023-05-25T12:52:30.810Z,29.74
2023-05-25T12:53:30.832Z,29.64
2023-05-25T12:54:30.914Z,29.22